weather.gov     
National Weather Service

Terminal Aerodrome Forecast
NWS Homepage
This page is being discontinued on March 12, 2014.
The same data is available at this site. Please update your bookmarks.
Thank you, and we apologize for the inconvenience.
Please send an email to SR-SRH.Webmaster@noaa.gov with any concerns.


Current Version
Previous Version:    01  02  03  04  05  06  07  08  09  10  11  12  13  14  15  16  17  18  19  20  21  22  23  24  25  26  27  28  29  30  
   31  32  33  34  35  36  37  38  39  40  41  42  43  44  45  46  47  
[Printable]
194
FTUS42 KRAH 231741
TAFRDU
TAF
KRDU 231741Z 2318/2418 VRB03KT 6SM -RA BKN025 OVC035
     FM232100 09009KT 2SM RA BR OVC009
      TEMPO 2323/2401 2SM RA BR OVC003
     FM240100 10010KT 2SM -RADZ BR OVC006 WS020/20055KT
     FM240400 17011G17KT 3SM -RADZ OVC006
     FM241500 21015G26KT P6SM SCT009 BKN015=


194
FTUS42 KRAH 231741
TAFRDU
TAF
KRDU 231741Z 2318/2418 VRB03KT 6SM -RA BKN025 OVC035
     FM232100 09009KT 2SM RA BR OVC009
      TEMPO 2323/2401 2SM RA BR OVC003
     FM240100 10010KT 2SM -RADZ BR OVC006 WS020/20055KT
     FM240400 17011G17KT 3SM -RADZ OVC006
     FM241500 21015G26KT P6SM SCT009 BKN015=




U.S. Dept. of Commerce
NOAA National Weather Service
1325 East West Highway
Silver Spring, MD 20910
E-mail: w-nws.webmaster@noaa.gov
Page last modified: May 16, 2007
NATIONAL WEATHER SERVICE: for Safety, for Work, for Fun - FOR LIFE